Terminal Aerodrome Forecast
Issued by NWS Jackson, MS

Home | Current Version | Previous Version | Text Only | Print | Product List | Glossary On
Versions: 1 2 3 4 5 6 7 8 9 10 11 12 13
049
FTUS44 KJAN 241752
TAFJAN
TAF
KJAN 241752Z 2418/2518 15015G24KT P6SM BKN035 BKN060
     FM250500 16016G24KT P6SM VCSH BKN020
     FM251100 16014G23KT 6SM TSRA BKN015CB OVC025
     FM251400 18015G24KT P6SM SCT025 BKN040=

USA.gov is the U.S. government's official web portal to all federal, state and local government web resources and services.